Time;durP1;ratioP1;P1;durP2;ratioP2;P2;SDS_P1;SDS_P2;PMS_P1;PMS_P2;Temp;Humidity;BMP_temperature;BMP_pressure;BME280_temperature;BME280_humidity;BME280_pressure;Samples;Min_cycle;Max_cycle;Signal;HPM_P1;HPM_P2
2023/12/31 00:00:27;;;;;;;1.48;1.42;;;;;;;8.20;83.00;97357.63;5001661;28;20462;-47
2023/12/31 00:02:55;;;;;;;0.40;0.40;;;;;;;8.22;82.97;97350.69;5010008;28;20038;-45
2023/12/31 00:05:22;;;;;;;1.25;0.40;;;;;;;8.15;83.25;97349.22;5003416;28;20046;-48
2023/12/31 00:07:49;;;;;;;0.22;0.22;;;;;;;8.25;83.30;97343.72;5000489;28;20145;-51
2023/12/31 00:10:17;;;;;;;0.35;0.35;;;;;;;8.23;82.88;97342.06;5003745;28;20042;-44
2023/12/31 00:12:44;;;;;;;0.93;0.20;;;;;;;8.23;82.69;97341.19;5001645;28;20057;-49
2023/12/31 00:15:11;;;;;;;0.50;0.20;;;;;;;8.23;82.53;97334.31;5000552;28;20111;-47
2023/12/31 00:17:37;;;;;;;0.20;0.20;;;;;;;8.25;82.51;97336.00;4999980;28;20077;-48
2023/12/31 00:20:05;;;;;;;0.50;0.22;;;;;;;8.26;82.68;97319.63;5006344;28;20049;-47
2023/12/31 00:22:32;;;;;;;0.73;0.32;;;;;;;8.26;83.05;97329.94;5007884;28;20052;-45
2023/12/31 00:24:58;;;;;;;0.35;0.20;;;;;;;8.30;82.86;97326.34;5006076;28;20078;-49
2023/12/31 00:27:26;;;;;;;0.40;0.40;;;;;;;8.31;82.86;97328.03;5005570;28;20058;-48
2023/12/31 00:29:52;;;;;;;0.57;0.38;;;;;;;8.29;82.73;97319.50;5003365;28;20419;-43
2023/12/31 00:32:19;;;;;;;0.63;0.63;;;;;;;8.28;83.07;97323.00;5004813;28;20072;-51
2023/12/31 00:34:46;;;;;;;0.50;0.50;;;;;;;8.25;82.54;97317.94;5005914;28;20045;-49
2023/12/31 00:37:13;;;;;;;0.43;0.40;;;;;;;8.22;83.47;97318.91;5006274;28;20049;-46
2023/12/31 00:39:40;;;;;;;0.82;0.70;;;;;;;8.25;82.22;97300.75;5002524;28;20050;-43
2023/12/31 00:42:06;;;;;;;0.28;0.28;;;;;;;8.22;82.48;97304.28;5005001;28;20470;-51
2023/12/31 00:44:33;;;;;;;0.40;0.40;;;;;;;8.15;82.99;97297.66;5002129;28;20041;-49
2023/12/31 00:47:00;;;;;;;0.43;0.43;;;;;;;8.24;82.43;97291.31;5006343;28;20050;-51
2023/12/31 00:49:26;;;;;;;0.20;0.20;;;;;;;8.18;83.04;97302.69;5001362;28;20514;-45
2023/12/31 00:51:53;;;;;;;0.55;0.55;;;;;;;8.19;82.59;97319.84;5006145;28;20466;-46
2023/12/31 00:54:20;;;;;;;0.90;0.50;;;;;;;8.16;82.33;97299.34;5002528;28;20058;-48
2023/12/31 00:56:46;;;;;;;3.47;0.75;;;;;;;8.17;81.99;97306.16;5007965;28;20356;-45
2023/12/31 00:59:13;;;;;;;1.83;1.73;;;;;;;8.11;82.10;97301.25;5005916;28;20614;-49
2023/12/31 01:01:39;;;;;;;2.83;2.10;;;;;;;8.15;82.40;97318.28;5013694;28;20054;-49
2023/12/31 01:04:06;;;;;;;1.20;0.50;;;;;;;8.05;82.41;97312.63;5039355;28;20040;-50
2023/12/31 01:06:33;;;;;;;0.50;0.40;;;;;;;8.08;82.23;97311.69;5012727;28;20049;-46
2023/12/31 01:09:00;;;;;;;2.88;2.67;;;;;;;8.06;81.85;97308.31;5011732;28;20471;-45
2023/12/31 01:11:28;;;;;;;1.25;0.40;;;;;;;8.07;81.77;97312.59;5004834;28;20823;-45
2023/12/31 01:13:55;;;;;;;1.50;1.38;;;;;;;8.04;81.58;97312.69;5015421;28;20045;-49
2023/12/31 01:16:23;;;;;;;0.95;0.50;;;;;;;8.02;80.69;97306.72;5005653;28;20133;-47
2023/12/31 01:18:50;;;;;;;0.73;0.40;;;;;;;8.01;81.08;97298.19;5002283;28;20082;-44
2023/12/31 01:21:18;;;;;;;0.80;0.40;;;;;;;7.96;81.64;97293.19;5007329;28;20580;-50
2023/12/31 01:23:47;;;;;;;0.50;0.22;;;;;;;7.96;80.94;97293.19;5009612;28;20054;-45
2023/12/31 01:26:17;;;;;;;0.60;0.40;;;;;;;7.94;80.61;97297.53;5003336;28;20046;-51
2023/12/31 01:28:44;;;;;;;2.40;0.82;;;;;;;7.87;81.39;97293.50;5001759;28;20108;-47
2023/12/31 01:31:19;;;;;;;0.90;0.50;;;;;;;7.84;79.86;97293.63;5007819;28;20077;-49
2023/12/31 01:33:47;;;;;;;1.02;0.88;;;;;;;7.80;80.31;97287.72;5004659;28;20060;-48
2023/12/31 01:36:16;;;;;;;2.72;0.55;;;;;;;7.77;80.73;97287.03;5005237;28;20050;-46
2023/12/31 01:38:44;;;;;;;0.50;0.50;;;;;;;7.71;80.22;97298.38;5005079;28;20132;-44
2023/12/31 01:41:11;;;;;;;0.40;0.22;;;;;;;7.67;80.38;97277.03;5008237;28;20084;-44
2023/12/31 01:43:39;;;;;;;2.85;2.75;;;;;;;7.59;79.93;97286.75;5008209;28;20207;-45
2023/12/31 01:46:10;;;;;;;0.57;0.57;;;;;;;7.55;79.90;97277.47;5001199;28;20419;-46
2023/12/31 01:48:37;;;;;;;0.43;0.35;;;;;;;7.52;80.14;97282.72;5002958;28;20053;-45
2023/12/31 01:51:06;;;;;;;1.92;1.73;;;;;;;7.50;80.27;97297.41;4999720;28;20045;-47
2023/12/31 01:53:35;;;;;;;1.25;0.73;;;;;;;7.52;80.45;97288.72;5006982;28;20119;-52
2023/12/31 01:56:02;;;;;;;0.98;0.60;;;;;;;7.52;80.05;97291.28;5002261;28;20069;-44
2023/12/31 01:58:30;;;;;;;1.90;0.55;;;;;;;7.52;80.98;97288.72;4999523;28;20137;-48
2023/12/31 02:00:58;;;;;;;1.25;0.40;;;;;;;7.53;80.83;97289.56;5003506;28;20115;-45
2023/12/31 02:03:29;;;;;;;0.75;0.70;;;;;;;7.49;81.24;97291.41;5001778;28;20066;-48
2023/12/31 02:05:56;;;;;;;2.92;0.47;;;;;;;7.46;80.76;97294.91;4999610;28;20041;-46
2023/12/31 02:08:23;;;;;;;1.75;0.30;;;;;;;7.45;81.18;97277.78;5000823;28;20050;-47
2023/12/31 02:10:51;;;;;;;0.40;0.30;;;;;;;7.46;80.33;97270.88;5003780;28;20054;-45
2023/12/31 02:13:18;;;;;;;0.35;0.30;;;;;;;7.45;80.66;97266.66;5006538;28;20046;-47
2023/12/31 02:15:45;;;;;;;0.47;0.43;;;;;;;7.43;81.01;97271.84;5002785;28;20077;-44
2023/12/31 02:18:11;;;;;;;1.70;1.60;;;;;;;7.42;80.22;97267.59;5001483;28;20046;-44
2023/12/31 02:20:39;;;;;;;0.55;0.50;;;;;;;7.45;80.53;97276.94;5005399;28;20045;-48
2023/12/31 02:23:07;;;;;;;0.40;0.30;;;;;;;7.42;80.42;97267.59;5000521;28;20794;-47
2023/12/31 02:25:39;;;;;;;0.95;0.55;;;;;;;7.42;80.84;97272.75;4997469;28;20061;-44
2023/12/31 02:28:13;;;;;;;0.15;0.13;;;;;;;7.41;80.83;97265.94;4984153;28;20073;-47
2023/12/31 02:30:40;;;;;;;0.22;0.22;;;;;;;7.40;80.77;97268.53;4982886;28;20073;-48
2023/12/31 02:33:08;;;;;;;0.22;0.22;;;;;;;7.38;80.43;97268.59;4983716;28;20039;-45
2023/12/31 02:35:35;;;;;;;0.40;0.32;;;;;;;7.38;80.77;97260.88;4984175;28;20050;-45
2023/12/31 02:38:02;;;;;;;0.55;0.40;;;;;;;7.36;80.09;97262.66;4978076;28;20069;-48
2023/12/31 02:40:29;;;;;;;0.20;0.15;;;;;;;7.37;80.29;97255.78;4984367;28;20046;-47
2023/12/31 02:42:56;;;;;;;0.68;0.68;;;;;;;7.35;80.24;97253.25;4984853;28;20495;-46
2023/12/31 02:45:24;;;;;;;0.65;0.43;;;;;;;7.36;80.32;97242.03;4982946;28;20058;-47
2023/12/31 02:47:51;;;;;;;1.50;0.75;;;;;;;7.37;80.92;97238.59;4976589;28;20100;-53
2023/12/31 02:50:18;;;;;;;1.25;1.15;;;;;;;7.31;80.88;97231.06;4982644;28;20046;-48
2023/12/31 02:52:44;;;;;;;0.77;0.50;;;;;;;7.32;80.90;97237.91;4983850;28;20405;-48
2023/12/31 02:55:11;;;;;;;0.43;0.20;;;;;;;7.29;80.00;97238.00;4982754;28;20050;-50
2023/12/31 02:57:38;;;;;;;2.08;1.98;;;;;;;7.28;79.89;97238.91;4984011;28;20112;-44
2023/12/31 03:00:05;;;;;;;0.30;0.30;;;;;;;7.25;81.08;97233.84;5000073;28;20464;-47
2023/12/31 03:02:32;;;;;;;1.98;1.88;;;;;;;7.24;80.90;97232.19;4992656;28;20054;-42
2023/12/31 03:04:59;;;;;;;0.20;0.20;;;;;;;7.22;79.98;97221.13;4982819;28;20070;-42
2023/12/31 03:07:26;;;;;;;1.75;0.30;;;;;;;7.18;81.07;97223.78;4989910;28;20046;-47
2023/12/31 03:09:52;;;;;;;0.63;0.10;;;;;;;7.17;81.03;97216.94;4991459;28;20050;-52
2023/12/31 03:12:19;;;;;;;1.40;1.40;;;;;;;7.13;81.26;97205.06;4987099;28;20076;-43
2023/12/31 03:14:46;;;;;;;0.28;0.22;;;;;;;7.13;81.62;97205.06;4991649;28;20077;-52
2023/12/31 03:17:14;;;;;;;1.85;1.75;;;;;;;7.12;81.10;97195.66;4982233;28;20117;-49
2023/12/31 03:19:41;;;;;;;2.15;2.05;;;;;;;7.09;82.06;97193.19;4985033;28;20053;-51
2023/12/31 03:22:07;;;;;;;1.88;1.77;;;;;;;7.09;80.96;97190.63;4986484;28;20137;-48
2023/12/31 03:24:34;;;;;;;1.80;0.50;;;;;;;7.09;81.92;97182.91;5007414;28;20056;-49
2023/12/31 03:27:01;;;;;;;0.40;0.35;;;;;;;7.09;80.59;97177.75;4994774;28;20551;-52
2023/12/31 03:29:27;;;;;;;0.30;0.30;;;;;;;7.08;80.85;97168.38;4990191;28;20578;-47
2023/12/31 03:31:54;;;;;;;1.65;0.57;;;;;;;7.05;80.90;97171.88;4981931;28;20049;-47
2023/12/31 03:34:21;;;;;;;1.17;0.30;;;;;;;7.07;80.79;97164.13;4977805;28;20064;-47
2023/12/31 03:36:48;;;;;;;1.20;0.40;;;;;;;7.07;81.17;97158.97;4986856;28;20054;-48
2023/12/31 03:39:15;;;;;;;0.70;0.70;;;;;;;7.06;81.10;97163.25;4988811;28;20496;-46
2023/12/31 03:41:45;;;;;;;0.77;0.65;;;;;;;7.05;81.51;97160.75;4988287;28;20100;-46
2023/12/31 03:44:13;;;;;;;0.50;0.50;;;;;;;7.01;81.50;97148.88;4980130;28;20508;-44
2023/12/31 03:46:46;;;;;;;0.45;0.38;;;;;;;6.97;82.21;97153.31;4988977;28;20431;-44
2023/12/31 03:49:12;;;;;;;0.75;0.50;;;;;;;7.00;82.56;97149.78;4983880;28;20579;-44
2023/12/31 03:51:39;;;;;;;0.60;0.60;;;;;;;7.00;81.37;97142.06;4986128;28;20062;-46
2023/12/31 03:54:08;;;;;;;0.70;0.65;;;;;;;6.97;82.50;97139.59;4986025;28;20046;-47
2023/12/31 03:56:38;;;;;;;1.15;0.38;;;;;;;6.98;81.02;97138.69;4983014;28;20066;-44
2023/12/31 03:59:04;;;;;;;1.15;0.95;;;;;;;6.96;82.30;97135.34;4985767;28;20424;-44
2023/12/31 04:01:31;;;;;;;0.20;0.20;;;;;;;6.94;82.69;97133.66;4988681;28;20085;-45
2023/12/31 04:03:58;;;;;;;3.25;2.08;;;;;;;6.94;82.11;97117.38;4990732;28;20046;-46
2023/12/31 04:06:25;;;;;;;0.40;0.40;;;;;;;6.94;81.39;97120.81;4977053;28;20487;-46
2023/12/31 04:08:51;;;;;;;1.92;1.83;;;;;;;6.94;82.44;97114.81;4985620;28;20046;-48
2023/12/31 04:11:18;;;;;;;0.20;0.20;;;;;;;6.93;81.66;97111.38;4989482;28;20459;-46
2023/12/31 04:13:44;;;;;;;0.50;0.50;;;;;;;6.90;82.27;97101.22;4987094;28;20065;-49
2023/12/31 04:16:14;;;;;;;0.55;0.35;;;;;;;6.87;82.73;97101.31;4989125;28;20050;-44
2023/12/31 04:18:41;;;;;;;0.20;0.20;;;;;;;6.86;82.46;97098.81;4984037;28;20042;-52
2023/12/31 04:21:08;;;;;;;0.43;0.38;;;;;;;6.85;81.41;97090.25;4989961;28;20137;-46
2023/12/31 04:23:36;;;;;;;0.47;0.45;;;;;;;6.80;81.93;97084.41;4985915;28;20416;-44
2023/12/31 04:26:06;;;;;;;1.48;1.38;;;;;;;6.84;82.82;97090.28;4986702;28;20247;-45
2023/12/31 04:28:32;;;;;;;1.27;0.30;;;;;;;6.84;82.26;97091.13;4988030;28;20050;-43
2023/12/31 04:31:02;;;;;;;1.25;0.65;;;;;;;6.82;81.83;97083.47;4987246;28;20062;-47
2023/12/31 04:33:29;;;;;;;0.35;0.22;;;;;;;6.84;82.07;97080.84;4986502;28;20069;-46
2023/12/31 04:35:56;;;;;;;1.75;0.20;;;;;;;6.78;82.45;97075.91;4987529;28;20551;-50
2023/12/31 04:38:23;;;;;;;0.22;0.22;;;;;;;6.79;82.11;97072.47;4984899;28;20046;-45
2023/12/31 04:40:50;;;;;;;0.65;0.40;;;;;;;6.77;82.89;97071.66;4983609;28;20050;-47
2023/12/31 04:43:17;;;;;;;0.40;0.40;;;;;;;6.76;83.25;97075.97;4985872;28;20089;-45
2023/12/31 04:45:43;;;;;;;0.50;0.20;;;;;;;6.73;82.26;97068.38;4982228;28;20054;-44
2023/12/31 04:48:10;;;;;;;1.63;1.55;;;;;;;6.74;81.65;97074.34;4985840;28;20082;-47
2023/12/31 04:50:37;;;;;;;1.65;1.55;;;;;;;6.71;82.12;97074.44;4984749;28;20298;-49
2023/12/31 04:53:04;;;;;;;2.33;2.22;;;;;;;6.67;82.90;97074.56;4986670;28;20057;-44
2023/12/31 04:55:33;;;;;;;0.47;0.47;;;;;;;6.67;82.93;97073.72;4985093;28;20494;-47
2023/12/31 04:58:00;;;;;;;0.57;0.57;;;;;;;6.67;81.61;97076.28;4980390;28;20053;-44
2023/12/31 05:00:26;;;;;;;0.80;0.80;;;;;;;6.65;81.50;97075.50;4980235;28;20427;-46
2023/12/31 05:02:53;;;;;;;0.65;0.65;;;;;;;6.65;81.09;97076.34;4987704;28;20054;-52
2023/12/31 05:05:21;;;;;;;3.22;0.38;;;;;;;6.64;81.96;97074.66;4983151;28;20093;-47
2023/12/31 05:07:49;;;;;;;0.55;0.20;;;;;;;6.66;81.17;97078.00;4984793;28;20050;-53
2023/12/31 05:10:15;;;;;;;2.10;2.00;;;;;;;6.65;81.37;97081.47;4983103;28;20051;-48
2023/12/31 05:12:42;;;;;;;1.25;0.68;;;;;;;6.66;81.91;97088.31;4984442;28;20054;-50
2023/12/31 05:15:09;;;;;;;2.08;1.92;;;;;;;6.67;81.49;97087.44;4985424;28;20068;-53
2023/12/31 05:17:35;;;;;;;2.60;2.20;;;;;;;6.69;81.69;97092.53;4980935;28;20051;-43
2023/12/31 05:20:03;;;;;;;1.67;1.58;;;;;;;6.72;81.18;97096.72;4983768;28;20048;-47
2023/12/31 05:22:29;;;;;;;3.13;1.60;;;;;;;6.71;81.54;97089.88;4983269;28;20054;-52
2023/12/31 05:24:56;;;;;;;1.92;1.83;;;;;;;6.70;82.42;97091.63;4984465;28;20050;-51
2023/12/31 05:27:25;;;;;;;0.20;0.20;;;;;;;6.69;80.94;97103.63;4979227;28;20054;-49
2023/12/31 05:29:51;;;;;;;1.60;1.45;;;;;;;6.69;81.11;97103.63;4984150;28;20559;-46
2023/12/31 05:32:18;;;;;;;0.50;0.22;;;;;;;6.69;80.70;97108.78;4984302;28;20046;-50
2023/12/31 05:34:45;;;;;;;2.30;2.10;;;;;;;6.68;81.10;97101.97;4982082;28;20047;-47
2023/12/31 05:37:11;;;;;;;0.30;0.30;;;;;;;6.66;81.06;97108.88;4981045;28;20602;-48
2023/12/31 05:39:38;;;;;;;2.90;1.83;;;;;;;6.65;81.31;97107.22;4981472;28;20074;-45
2023/12/31 05:42:05;;;;;;;2.70;2.28;;;;;;;6.66;81.65;97108.06;4985854;28;20061;-44
2023/12/31 05:44:32;;;;;;;0.32;0.32;;;;;;;6.64;81.36;97109.81;4983455;28;20054;-47
2023/12/31 05:46:58;;;;;;;2.83;1.92;;;;;;;6.61;80.57;97110.78;4983478;28;20046;-46
2023/12/31 05:49:25;;;;;;;0.75;0.75;;;;;;;6.60;81.41;97103.09;4987064;28;20431;-48
2023/12/31 05:51:52;;;;;;;0.30;0.30;;;;;;;6.59;80.74;97104.88;4978219;28;20412;-49
2023/12/31 05:54:20;;;;;;;1.23;1.23;;;;;;;6.54;80.80;97101.59;4978002;28;20039;-51
2023/12/31 05:56:47;;;;;;;1.10;1.10;;;;;;;6.53;81.46;97112.78;4975741;28;20050;-42
2023/12/31 05:59:14;;;;;;;1.58;1.48;;;;;;;6.43;80.21;97105.34;4983447;28;20530;-45
2023/12/31 06:01:41;;;;;;;1.15;1.15;;;;;;;6.35;80.40;97102.19;4981389;28;20051;-49
2023/12/31 06:04:08;;;;;;;1.45;1.40;;;;;;;6.30;79.29;97101.53;4982319;28;20046;-48
2023/12/31 06:06:35;;;;;;;0.13;0.13;;;;;;;6.25;80.68;97104.22;4983854;28;20590;-49
2023/12/31 06:09:03;;;;;;;1.33;1.27;;;;;;;6.22;81.15;97103.50;4982989;28;20050;-47
2023/12/31 06:11:32;;;;;;;1.30;1.30;;;;;;;6.19;80.78;97096.75;4984874;28;20050;-50
2023/12/31 06:14:01;;;;;;;2.38;2.28;;;;;;;6.17;80.82;97101.94;4976499;28;20047;-47
2023/12/31 06:16:27;;;;;;;0.60;0.10;;;;;;;6.15;81.08;97101.13;4980985;28;20047;-55
2023/12/31 06:18:54;;;;;;;1.85;1.75;;;;;;;6.12;80.30;97098.66;4981903;28;20058;-46
2023/12/31 06:21:20;;;;;;;1.35;1.30;;;;;;;6.11;80.70;97096.97;4979132;28;20047;-47
2023/12/31 06:23:47;;;;;;;1.23;1.23;;;;;;;6.09;79.98;97097.91;4985370;28;20068;-47
2023/12/31 06:26:14;;;;;;;1.00;1.00;;;;;;;6.08;80.04;97101.38;4982693;28;20058;-46
2023/12/31 06:28:40;;;;;;;1.45;1.45;;;;;;;6.07;81.05;97108.25;4983429;28;20050;-44
2023/12/31 06:31:09;;;;;;;2.03;1.92;;;;;;;6.06;79.97;97098.84;4985131;28;20054;-48
2023/12/31 06:33:36;;;;;;;0.45;0.28;;;;;;;6.04;81.06;97106.63;4987552;28;20053;-44
2023/12/31 06:36:05;;;;;;;1.63;1.52;;;;;;;6.03;80.87;97098.91;4984727;28;20831;-50
2023/12/31 06:38:31;;;;;;;1.65;0.45;;;;;;;6.02;80.70;97089.53;4990716;28;21618;-44
2023/12/31 06:40:58;;;;;;;1.55;1.48;;;;;;;6.00;79.96;97092.16;4988226;28;20114;-48
2023/12/31 06:43:25;;;;;;;0.50;0.30;;;;;;;5.99;81.10;97093.06;4989347;28;20487;-48
2023/12/31 06:45:53;;;;;;;1.30;1.30;;;;;;;5.99;80.80;97102.47;4986025;28;20058;-50
2023/12/31 06:48:19;;;;;;;2.38;0.30;;;;;;;6.01;80.53;97100.72;4983739;28;20562;-49
2023/12/31 06:50:49;;;;;;;0.40;0.40;;;;;;;6.03;79.62;97102.38;4985266;28;20058;-43
2023/12/31 06:53:16;;;;;;;0.20;0.20;;;;;;;6.03;80.73;97098.91;4982942;28;20051;-47
2023/12/31 06:55:42;;;;;;;0.75;0.75;;;;;;;6.02;80.75;97092.94;4985228;28;20459;-46
2023/12/31 06:58:09;;;;;;;0.40;0.32;;;;;;;6.02;80.54;97094.69;4989542;28;20047;-44
2023/12/31 07:00:36;;;;;;;1.48;1.38;;;;;;;5.98;80.18;97096.50;4989719;28;20050;-50
2023/12/31 07:03:06;;;;;;;0.20;0.20;;;;;;;5.95;79.58;97101.75;4986577;28;20046;-51
2023/12/31 07:05:34;;;;;;;1.50;1.40;;;;;;;5.91;80.96;97095.84;4984279;28;20093;-48
2023/12/31 07:08:01;;;;;;;1.40;1.40;;;;;;;5.90;80.85;97093.31;4986261;28;20054;-44
2023/12/31 07:10:28;;;;;;;0.30;0.30;;;;;;;5.87;80.53;97094.28;4990436;28;20050;-43
2023/12/31 07:12:54;;;;;;;1.67;1.58;;;;;;;5.83;81.06;97092.69;4986978;28;20553;-47
2023/12/31 07:15:21;;;;;;;2.88;2.78;;;;;;;5.79;79.85;97091.94;4986406;28;20049;-45
2023/12/31 07:17:48;;;;;;;0.40;0.20;;;;;;;5.75;79.89;97104.94;4991109;28;20047;-47
2023/12/31 07:20:17;;;;;;;2.38;2.10;;;;;;;5.72;80.76;97103.31;4984676;28;20057;-50
2023/12/31 07:22:43;;;;;;;1.38;1.38;;;;;;;5.68;79.86;97094.00;4991018;28;20695;-45
2023/12/31 07:25:10;;;;;;;1.92;1.63;;;;;;;5.64;80.85;97095.81;4988556;28;20822;-47
2023/12/31 07:27:38;;;;;;;2.08;1.98;;;;;;;5.60;80.18;97104.50;4984871;28;20050;-49
2023/12/31 07:30:06;;;;;;;1.33;1.33;;;;;;;5.56;81.03;97100.34;4984549;28;20049;-42
2023/12/31 07:32:33;;;;;;;0.20;0.20;;;;;;;5.53;80.32;97090.16;4989871;28;20047;-50
2023/12/31 07:35:00;;;;;;;2.15;2.05;;;;;;;5.50;79.83;97097.94;4990355;28;20053;-43
2023/12/31 07:37:28;;;;;;;0.75;0.20;;;;;;;5.43;80.69;97104.19;4989337;28;20054;-45
2023/12/31 07:39:56;;;;;;;1.65;1.55;;;;;;;5.36;80.38;97104.34;4985831;28;20061;-50
2023/12/31 07:42:27;;;;;;;1.38;1.38;;;;;;;5.31;81.54;97101.09;4988561;28;20078;-43
2023/12/31 07:44:53;;;;;;;2.13;2.00;;;;;;;5.29;81.59;97107.97;4988085;28;20057;-48
2023/12/31 07:47:20;;;;;;;1.75;1.65;;;;;;;5.27;81.26;97104.63;4986331;28;20534;-47
2023/12/31 07:49:47;;;;;;;1.90;1.80;;;;;;;5.25;82.06;97106.38;4990326;28;20042;-46
2023/12/31 07:52:15;;;;;;;2.92;2.38;;;;;;;5.22;81.55;97101.31;4985656;28;20058;-45
2023/12/31 07:54:42;;;;;;;1.35;1.35;;;;;;;5.13;82.59;97098.16;4988942;28;20101;-47
2023/12/31 07:57:08;;;;;;;1.73;1.65;;;;;;;5.11;82.52;97102.50;4990195;28;20046;-45
2023/12/31 07:59:35;;;;;;;0.40;0.20;;;;;;;5.11;81.82;97099.94;4987366;28;20058;-46
2023/12/31 08:02:03;;;;;;;1.85;1.75;;;;;;;5.10;82.60;97103.34;4988652;28;20057;-43
2023/12/31 08:04:29;;;;;;;2.05;1.70;;;;;;;5.11;82.12;97107.63;4987063;28;20038;-48
2023/12/31 08:06:56;;;;;;;2.22;2.13;;;;;;;5.10;82.76;97103.34;4988227;28;20134;-42
2023/12/31 08:09:23;;;;;;;2.30;2.20;;;;;;;5.12;82.57;97101.59;4983643;28;20038;-44
2023/12/31 08:11:50;;;;;;;1.30;1.25;;;;;;;5.14;82.31;97099.00;4988871;28;20496;-43
2023/12/31 08:14:17;;;;;;;3.53;2.28;;;;;;;5.17;82.93;97100.63;4988294;28;20058;-45
2023/12/31 08:16:46;;;;;;;1.88;1.77;;;;;;;5.18;82.04;97089.47;4989331;28;20046;-47
2023/12/31 08:19:13;;;;;;;1.35;1.25;;;;;;;5.20;83.05;97095.41;4985503;28;20069;-49
2023/12/31 08:21:40;;;;;;;2.80;2.28;;;;;;;5.18;83.26;97090.31;4984149;28;20054;-45
2023/12/31 08:24:07;;;;;;;1.98;1.88;;;;;;;5.19;82.18;97083.44;4985292;28;20500;-48
2023/12/31 08:26:36;;;;;;;1.48;1.38;;;;;;;5.21;81.99;97094.53;4982372;28;20062;-46
2023/12/31 08:29:02;;;;;;;1.73;1.63;;;;;;;5.20;81.95;97082.59;4987583;28;20058;-46
2023/12/31 08:31:29;;;;;;;3.75;1.92;;;;;;;5.21;81.76;97084.25;4988017;28;20120;-44
2023/12/31 08:33:56;;;;;;;1.45;1.33;;;;;;;5.21;82.34;97084.25;4985232;28;20065;-44
2023/12/31 08:36:23;;;;;;;1.38;0.20;;;;;;;5.21;82.69;97094.53;4985143;28;20471;-47
2023/12/31 08:38:49;;;;;;;1.70;1.50;;;;;;;5.23;82.23;97098.72;4981075;28;20042;-45
2023/12/31 08:41:16;;;;;;;4.15;1.60;;;;;;;5.30;82.50;97093.41;4975640;28;20051;-42
2023/12/31 08:43:43;;;;;;;1.25;0.32;;;;;;;5.40;82.70;97093.09;4983323;28;20688;-46
2023/12/31 08:46:11;;;;;;;2.10;1.95;;;;;;;5.50;82.26;97085.97;4982545;28;20554;-46
2023/12/31 08:48:38;;;;;;;3.45;1.60;;;;;;;5.61;82.09;97088.19;4983282;28;20062;-49
2023/12/31 08:51:05;;;;;;;4.07;2.40;;;;;;;5.61;83.17;97093.34;4982717;28;20054;-49
2023/12/31 08:53:32;;;;;;;3.70;2.13;;;;;;;5.65;82.96;97094.09;4981320;28;20069;-45
2023/12/31 08:55:59;;;;;;;3.47;1.48;;;;;;;5.69;82.26;97089.69;4979361;28;20047;-46
2023/12/31 08:58:25;;;;;;;4.20;3.17;;;;;;;5.71;83.04;97090.50;4981059;28;20054;-51
2023/12/31 09:00:54;;;;;;;1.98;1.85;;;;;;;5.64;83.12;97088.09;4982794;28;20082;-48
2023/12/31 09:03:21;;;;;;;1.25;1.20;;;;;;;5.70;82.50;97087.09;4984243;28;20054;-44
2023/12/31 09:05:48;;;;;;;2.95;0.47;;;;;;;5.74;82.34;97087.84;4982825;28;20408;-41
2023/12/31 09:08:15;;;;;;;5.18;0.57;;;;;;;5.78;83.35;97090.25;4980151;28;20402;-49
2023/12/31 09:10:42;;;;;;;3.85;1.77;;;;;;;5.89;82.30;97087.38;4982741;28;20042;-49
2023/12/31 09:13:09;;;;;;;4.20;1.52;;;;;;;5.90;81.50;97094.19;4974628;28;20639;-47
2023/12/31 09:15:36;;;;;;;2.38;2.10;;;;;;;5.89;81.25;97082.22;4983047;28;20043;-47
2023/12/31 09:18:03;;;;;;;3.78;1.90;;;;;;;5.85;82.50;97085.78;4982312;28;20069;-48
2023/12/31 09:20:31;;;;;;;2.30;2.20;;;;;;;5.84;82.07;97081.50;4985195;28;20069;-47
2023/12/31 09:22:59;;;;;;;10.85;1.88;;;;;;;5.86;82.92;97079.75;4989721;28;20092;-47
2023/12/31 09:25:26;;;;;;;3.53;0.32;;;;;;;5.84;81.59;97073.81;4981915;28;20404;-49
2023/12/31 09:27:53;;;;;;;3.80;2.45;;;;;;;5.80;82.16;97072.22;4987360;28;20468;-45
2023/12/31 09:30:20;;;;;;;4.15;0.45;;;;;;;5.79;82.25;97056.00;4983465;28;20043;-45
2023/12/31 09:32:46;;;;;;;4.05;1.95;;;;;;;5.79;82.14;97067.97;4984029;28;20052;-50
2023/12/31 09:35:13;;;;;;;2.58;1.75;;;;;;;5.80;81.74;97059.38;4987128;28;20046;-44
2023/12/31 09:37:41;;;;;;;4.18;2.35;;;;;;;5.89;81.74;97066.81;4987275;28;20058;-46
2023/12/31 09:40:09;;;;;;;2.97;2.08;;;;;;;5.94;82.44;97063.25;4982808;28;20503;-49
2023/12/31 09:42:49;;;;;;;4.40;2.25;;;;;;;5.95;82.23;97059.78;4987472;28;20046;-43
2023/12/31 09:45:21;;;;;;;2.60;1.60;;;;;;;5.96;82.97;97058.91;4983018;28;20042;-47
2023/12/31 09:47:49;;;;;;;1.75;1.65;;;;;;;5.95;82.81;97059.78;4984413;28;20061;-43
2023/12/31 09:50:21;;;;;;;2.05;0.32;;;;;;;6.30;82.05;97055.25;4977970;28;20146;-47
2023/12/31 09:52:50;;;;;;;2.05;1.95;;;;;;;6.99;82.75;97052.91;4982722;28;20058;-45
2023/12/31 09:55:18;;;;;;;1.13;0.40;;;;;;;7.17;80.34;97054.75;4983363;28;20042;-43
2023/12/31 09:57:46;;;;;;;2.88;1.73;;;;;;;7.18;78.63;97059.03;4981858;28;20144;-49
2023/12/31 10:00:14;;;;;;;6.20;1.95;;;;;;;7.54;78.61;97051.72;4984998;28;20042;-44
2023/12/31 10:02:43;;;;;;;4.55;2.13;;;;;;;7.66;78.34;97058.97;4983056;28;20050;-45
2023/12/31 10:05:11;;;;;;;4.82;1.73;;;;;;;7.57;78.52;97054.19;4977321;28;20507;-44
2023/12/31 10:07:38;;;;;;;4.78;2.22;;;;;;;7.34;78.14;97058.47;4984430;28;20093;-51
2023/12/31 10:10:07;;;;;;;3.63;0.70;;;;;;;7.25;77.97;97049.34;4986534;28;20767;-45
2023/12/31 10:12:34;;;;;;;4.97;0.70;;;;;;;7.09;78.59;97049.06;4979528;28;20077;-46
2023/12/31 10:15:01;;;;;;;6.95;0.43;;;;;;;6.98;79.56;97049.47;4983455;28;20428;-45
2023/12/31 10:17:29;;;;;;;5.55;1.05;;;;;;;7.13;79.13;97058.34;4985880;28;20525;-49
2023/12/31 10:19:57;;;;;;;3.67;2.67;;;;;;;7.59;78.77;97054.94;4985699;28;20054;-45
2023/12/31 10:22:25;;;;;;;2.97;2.22;;;;;;;7.57;78.10;97055.00;4987329;28;20723;-51
2023/12/31 10:24:52;;;;;;;4.43;2.13;;;;;;;7.45;77.59;97056.31;4987190;28;20051;-46
2023/12/31 10:27:19;;;;;;;0.63;0.32;;;;;;;7.36;77.55;97056.66;4987069;28;20050;-47
2023/12/31 10:29:46;;;;;;;1.45;0.38;;;;;;;7.20;77.19;97034.06;4984307;28;20531;-42
2023/12/31 10:32:13;;;;;;;1.77;0.50;;;;;;;7.10;77.95;97035.31;4984853;28;20053;-48
2023/12/31 10:34:41;;;;;;;2.55;0.55;;;;;;;7.08;78.23;97031.97;4983500;28;20100;-46
2023/12/31 10:37:08;;;;;;;4.63;1.67;;;;;;;7.06;77.46;97034.59;4978975;28;20508;-46
2023/12/31 10:39:38;;;;;;;3.53;0.95;;;;;;;7.03;77.85;97026.16;4983619;28;20092;-43
2023/12/31 10:42:06;;;;;;;7.63;3.40;;;;;;;7.11;78.75;97029.28;4979407;28;20054;-50
2023/12/31 10:44:36;;;;;;;2.35;1.70;;;;;;;7.17;79.07;97029.03;4983949;28;20050;-48
2023/12/31 10:47:05;;;;;;;1.23;0.38;;;;;;;7.29;79.44;97025.16;4976816;28;20054;-51
2023/12/31 10:49:34;;;;;;;4.93;0.73;;;;;;;7.39;79.27;97035.94;4977213;28;20201;-45
2023/12/31 10:52:03;;;;;;;4.43;2.10;;;;;;;7.41;78.38;97029.00;5003185;28;20132;-48
2023/12/31 10:57:24;;;;;;;6.72;1.90;;;;;;;7.25;78.04;97027.91;5048613;27;20393;-45
2023/12/31 10:59:53;;;;;;;1.90;1.08;;;;;;;7.24;77.77;97028.81;5033798;28;20052;-47
2023/12/31 11:02:21;;;;;;;4.30;0.63;;;;;;;7.22;78.65;97028.03;5031140;28;20049;-45
2023/12/31 11:04:51;;;;;;;2.92;0.70;;;;;;;7.13;78.50;97024.88;5028822;28;20049;-45
2023/12/31 11:07:19;;;;;;;6.05;1.00;;;;;;;7.11;78.88;97018.13;5031672;28;20056;-46
2023/12/31 11:09:47;;;;;;;0.55;0.22;;;;;;;7.09;77.88;97020.75;5035945;28;20058;-47
2023/12/31 11:12:16;;;;;;;1.23;0.88;;;;;;;7.05;79.14;97019.19;5036677;28;20441;-48
2023/12/31 11:14:48;;;;;;;10.40;0.88;;;;;;;7.07;78.31;97014.84;5034572;28;20055;-49
2023/12/31 11:25:26;;;;;;;4.63;0.70;;;;;;;7.10;78.07;97019.88;5064117;27;20389;-51
2023/12/31 11:27:54;;;;;;;2.80;0.90;;;;;;;7.05;79.26;97012.31;4999679;27;20129;-49
2023/12/31 11:30:45;;;;;;;2.58;0.73;;;;;;;7.15;79.52;97012.81;5001330;28;20517;-49
2023/12/31 11:33:16;;;;;;;2.08;0.50;;;;;;;7.15;78.72;97007.66;5002623;28;20072;-47
2023/12/31 11:35:47;;;;;;;4.30;0.77;;;;;;;7.23;79.65;97006.53;4999139;28;20046;-45
2023/12/31 11:38:16;;;;;;;2.33;0.70;;;;;;;7.24;78.88;97006.50;4999332;28;20046;-47
2023/12/31 11:40:45;;;;;;;2.92;0.95;;;;;;;7.18;79.18;97007.56;4990902;28;20047;-43
2023/12/31 11:43:14;;;;;;;2.78;1.25;;;;;;;7.14;78.63;97003.44;5001739;28;20069;-48
2023/12/31 11:45:46;;;;;;;3.17;0.98;;;;;;;7.18;78.64;97007.56;4998577;28;20046;-46
2023/12/31 11:50:58;;;;;;;2.13;0.75;;;;;;;7.22;79.08;96999.72;5088557;27;20411;-49
2023/12/31 11:53:26;;;;;;;1.08;0.55;;;;;;;7.17;78.78;96995.56;5073572;28;20098;-47
2023/12/31 11:55:56;;;;;;;4.85;1.17;;;;;;;7.18;78.91;96991.25;5060286;28;20040;-46